Chester, Canada
Current Conditions -  °F | °C
As of 5:00 AM on Wednesday 28 Jan 2015 (Local Time) from CYHZ Reporting Station
Freezing Drizzle Freezing Drizzle  
Wind Chill: 13°   Ceiling: 300
Heat Index: 25°   Visibility: 7mi
Dew Point: 23°   Wind: 13mph
Humidity: 93%   Direction: 30°NNE
Pressure: 29.47"   Gusts: NA
Location:  44.53°N, 64.23°W
Report Text: CYHZ 280900Z 03011KT 7SM -FZDZ OVC003 M04/M05 A2947 RMK ST8 SLP986
Loading
Personal Weather Stations






























Interactive Weather Map New forecast layout! Learn more

10-Day Weather Forecast

Advertisements
Track Severe Weather on mobile